LHSM/SOB METAR and TAF weather

Enter ICAO airport designator
Station Type Date Time Source
LHSM METAR 2022/08/13 11:45 UTC NOAA

LHSM 131145Z AUTO 28006KT 9999 -SHRA NSC 19/17 Q1014 NOSIG


Station Type Date Time Source
LHSM Decoded METAR 2022/08/13 11:45 UTC NOAA

Station name not available
Aug 13, 2022 - 07:45 AM EDT / 2022.08.13 1145 UTC
Wind: from the W (280 degrees) at 7 MPH (6 KT):0
Visibility: greater than 7 mile(s):0
Weather: light rain showers
Temperature: 66 F (19 C)
Dew Point: 62 F (17 C)
Relative Humidity: 88%
Pressure (altimeter): 29.94 in. Hg (1014 hPa)
ob: LHSM 131145Z AUTO 28006KT 9999 -SHRA NSC 19/17 Q1014 NOSIG
cycle: 12

Station Type Date Time Source
LHSM TAF UTC NOAA

Error!

Example: see airport list